Time;durP1;ratioP1;P1;durP2;ratioP2;P2;SDS_P1;SDS_P2;PMS_P1;PMS_P2;Temp;Humidity;BMP_temperature;BMP_pressure;BME280_temperature;BME280_humidity;BME280_pressure;Samples;Min_cycle;Max_cycle;Signal;HPM_P1;HPM_P2
2022/10/05 00:00:19;;;;;;;4.47;2.10;;;12.50;99.90;;;;;;4847946;29;20248;-86
2022/10/05 00:02:46;;;;;;;3.25;2.00;;;12.50;99.90;;;;;;4864232;29;20176;-84
2022/10/05 00:05:32;;;;;;;4.00;2.00;;;12.50;99.90;;;;;;4864042;29;20180;-85
2022/10/05 00:08:12;;;;;;;5.65;2.28;;;12.50;99.90;;;;;;4847480;29;20176;-85
2022/10/05 00:10:40;;;;;;;3.85;2.10;;;12.50;99.90;;;;;;4847757;29;20180;-84
2022/10/05 00:13:12;;;;;;;4.15;2.20;;;12.50;99.90;;;;;;4847133;29;20194;-84
2022/10/05 00:15:38;;;;;;;4.18;2.28;;;12.50;99.90;;;;;;4847025;29;20199;-83
2022/10/05 00:18:20;;;;;;;2.25;1.50;;;12.50;99.90;;;;;;4847394;29;20172;-85
2022/10/05 00:20:47;;;;;;;3.78;2.08;;;12.50;99.90;;;;;;4847586;29;20562;-86
2022/10/05 00:23:20;;;;;;;2.83;1.90;;;12.50;99.90;;;;;;4863549;29;20220;-85
2022/10/05 00:25:47;;;;;;;2.88;2.03;;;12.50;99.90;;;;;;4847213;29;20655;-85
2022/10/05 00:28:26;;;;;;;7.22;2.10;;;12.50;99.90;;;;;;4863748;29;20173;-84
2022/10/05 00:30:56;;;;;;;3.10;1.98;;;12.50;99.90;;;;;;4863941;29;20183;-86
2022/10/05 00:33:22;;;;;;;4.13;1.73;;;12.50;99.90;;;;;;4847100;29;20199;-85
2022/10/05 00:35:48;;;;;;;4.75;2.13;;;12.50;99.90;;;;;;4863830;29;20620;-85
2022/10/05 00:38:13;;;;;;;5.15;2.45;;;12.50;99.90;;;;;;4846761;29;20178;-84
2022/10/05 00:40:45;;;;;;;6.18;2.40;;;12.50;99.90;;;;;;4847203;29;20192;-86
2022/10/05 00:43:21;;;;;;;5.50;2.42;;;12.50;99.90;;;;;;4846835;29;20181;-85
2022/10/05 00:46:22;;;;;;;4.63;2.38;;;12.50;99.90;;;;;;4846910;29;20185;-85
2022/10/05 00:48:56;;;;;;;5.07;2.30;;;12.50;99.90;;;;;;4846496;29;20179;-84
2022/10/05 00:51:36;;;;;;;6.07;2.67;;;12.50;99.90;;;;;;4863672;29;20171;-84
2022/10/05 00:54:44;;;;;;;5.20;2.13;;;12.50;99.90;;;;;;4846527;29;20219;-85
2022/10/05 00:57:36;;;;;;;5.53;2.25;;;12.50;99.90;;;;;;4846878;29;20659;-86
2022/10/05 01:00:14;;;;;;;3.75;2.28;;;12.40;99.90;;;;;;4846720;29;20200;-84
2022/10/05 01:03:11;;;;;;;3.22;1.98;;;12.40;99.90;;;;;;4846750;29;20199;-86
2022/10/05 01:05:55;;;;;;;4.95;2.38;;;12.40;99.90;;;;;;4863098;29;20181;-85
2022/10/05 01:08:20;;;;;;;4.45;2.30;;;12.30;99.90;;;;;;4846353;29;20474;-85
2022/10/05 01:10:54;;;;;;;3.40;2.22;;;12.30;99.90;;;;;;4846578;29;20275;-84
2022/10/05 01:13:42;;;;;;;6.18;2.03;;;12.30;99.90;;;;;;4846414;29;20221;-84
2022/10/05 01:16:29;;;;;;;3.67;2.00;;;12.30;99.90;;;;;;4846007;29;20195;-85
2022/10/05 01:19:15;;;;;;;3.60;2.00;;;12.30;99.90;;;;;;4862980;29;20188;-85
2022/10/05 01:22:09;;;;;;;6.15;2.10;;;12.30;99.90;;;;;;4862926;29;20217;-85
2022/10/05 01:24:35;;;;;;;6.65;2.72;;;12.30;99.90;;;;;;4839904;29;20240;-84
2022/10/05 01:27:27;;;;;;;2.10;1.83;;;12.30;99.90;;;;;;4827900;29;20193;-86
2022/10/05 01:30:09;;;;;;;8.77;2.10;;;12.30;99.90;;;;;;4828096;29;20188;-85
2022/10/05 01:32:47;;;;;;;2.70;1.90;;;12.30;99.90;;;;;;4827967;29;20191;-85
2022/10/05 01:35:37;;;;;;;3.22;2.00;;;12.30;99.90;;;;;;4844111;29;20201;-85
2022/10/05 01:38:13;;;;;;;10.23;2.05;;;12.30;99.90;;;;;;4828210;29;20189;-85
2022/10/05 01:41:03;;;;;;;3.90;1.77;;;12.30;99.90;;;;;;4844157;29;20177;-84
2022/10/05 01:43:56;;;;;;;9.48;2.03;;;12.20;99.90;;;;;;4827764;29;20185;-85
2022/10/05 01:46:37;;;;;;;3.70;1.90;;;12.30;99.90;;;;;;4827634;29;20528;-85
2022/10/05 01:49:24;;;;;;;7.03;2.35;;;12.30;99.90;;;;;;4843970;29;20185;-83
2022/10/05 01:52:11;;;;;;;6.03;2.22;;;12.30;99.90;;;;;;4843872;29;20230;-86
2022/10/05 01:54:42;;;;;;;4.65;2.45;;;12.30;99.90;;;;;;4861665;29;20205;-86
2022/10/05 01:57:31;;;;;;;4.30;2.00;;;12.30;99.90;;;;;;4862248;29;20264;-84
2022/10/05 02:00:08;;;;;;;4.28;2.40;;;12.30;99.90;;;;;;4862137;29;20177;-85
2022/10/05 02:02:51;;;;;;;4.32;2.20;;;12.30;99.90;;;;;;4845675;29;20616;-85
2022/10/05 02:05:21;;;;;;;5.25;2.20;;;12.30;99.90;;;;;;4845598;29;20192;-85
2022/10/05 02:08:00;;;;;;;6.85;2.20;;;12.20;99.90;;;;;;4845617;29;20528;-86
2022/10/05 02:10:37;;;;;;;4.28;2.15;;;12.30;99.90;;;;;;4845528;29;20195;-85
2022/10/05 02:13:17;;;;;;;4.15;2.00;;;12.30;99.90;;;;;;4845588;29;20188;-86
2022/10/05 02:15:58;;;;;;;5.85;2.30;;;12.20;99.90;;;;;;4845457;29;20196;-86
2022/10/05 02:18:48;;;;;;;4.57;2.10;;;12.20;99.90;;;;;;4845471;29;20183;-84
2022/10/05 02:21:14;;;;;;;5.53;2.45;;;12.20;99.90;;;;;;4845526;29;20581;-86
2022/10/05 02:23:43;;;;;;;4.68;2.10;;;12.20;99.90;;;;;;4844841;29;20244;-85
2022/10/05 02:26:11;;;;;;;5.13;2.30;;;12.20;99.90;;;;;;4845293;29;20180;-86
2022/10/05 02:28:50;;;;;;;7.20;2.25;;;12.30;99.90;;;;;;4845166;29;20190;-85
2022/10/05 02:31:22;;;;;;;6.28;2.50;;;12.30;99.90;;;;;;4845284;29;20187;-85
2022/10/05 02:33:48;;;;;;;4.53;2.20;;;12.30;99.90;;;;;;4845120;29;20208;-86
2022/10/05 02:36:22;;;;;;;5.15;2.30;;;12.30;99.90;;;;;;4845144;29;20199;-84
2022/10/05 02:38:52;;;;;;;3.17;2.00;;;12.30;99.90;;;;;;4845112;29;20180;-85
2022/10/05 02:41:30;;;;;;;3.45;1.98;;;12.30;99.90;;;;;;4861556;29;20490;-84
2022/10/05 02:44:09;;;;;;;3.42;2.00;;;12.30;99.90;;;;;;4861734;29;20176;-86
2022/10/05 02:46:51;;;;;;;3.15;2.00;;;12.30;99.90;;;;;;4861700;29;20173;-85
2022/10/05 02:49:37;;;;;;;4.35;2.40;;;12.30;99.90;;;;;;4861492;29;20176;-86
2022/10/05 02:52:17;;;;;;;4.07;2.45;;;12.30;99.90;;;;;;4844798;29;20181;-86
2022/10/05 02:55:05;;;;;;;7.45;2.33;;;12.30;99.90;;;;;;4842661;29;20208;-84
2022/10/05 02:57:47;;;;;;;7.03;2.30;;;12.30;99.90;;;;;;4843097;29;20170;-86
2022/10/05 03:00:20;;;;;;;5.47;2.40;;;12.30;99.90;;;;;;4843224;29;20744;-85
2022/10/05 03:02:51;;;;;;;4.43;2.25;;;12.30;99.90;;;;;;4842808;29;20178;-85
2022/10/05 03:05:34;;;;;;;5.50;2.40;;;12.30;99.90;;;;;;4826818;29;20602;-85
2022/10/05 03:08:11;;;;;;;3.97;2.63;;;12.30;99.90;;;;;;4826790;29;20213;-83
2022/10/05 03:11:06;;;;;;;6.53;2.50;;;12.30;99.90;;;;;;4827787;29;20505;-85
2022/10/05 03:13:37;;;;;;;4.82;2.20;;;12.30;99.90;;;;;;4829700;29;20205;-85
2022/10/05 03:16:37;;;;;;;6.18;2.30;;;12.40;99.90;;;;;;4830028;29;20220;-85
2022/10/05 03:19:17;;;;;;;5.38;2.42;;;12.30;99.90;;;;;;4829789;29;20185;-85
2022/10/05 03:21:56;;;;;;;7.53;2.50;;;12.40;99.90;;;;;;4830130;29;20185;-85
2022/10/05 03:24:30;;;;;;;6.25;2.40;;;12.40;99.90;;;;;;4845835;29;20319;-85
2022/10/05 03:27:21;;;;;;;4.35;2.30;;;12.40;99.90;;;;;;4864925;29;20180;-85
2022/10/05 03:30:06;;;;;;;2.67;2.10;;;12.40;99.90;;;;;;4848374;29;20195;-85
2022/10/05 03:33:00;;;;;;;6.20;2.38;;;12.40;99.90;;;;;;4864655;29;20201;-85
2022/10/05 03:35:31;;;;;;;7.97;2.70;;;12.40;99.90;;;;;;4864900;29;20215;-86
2022/10/05 03:38:06;;;;;;;3.20;2.45;;;12.40;99.90;;;;;;4848219;29;20529;-86
2022/10/05 03:40:38;;;;;;;7.45;2.70;;;12.40;99.90;;;;;;4848043;29;20187;-85
2022/10/05 03:43:41;;;;;;;4.40;2.85;;;12.40;99.90;;;;;;4848113;29;20655;-85
2022/10/05 03:46:29;;;;;;;8.65;2.20;;;12.40;99.90;;;;;;4847923;29;20187;-85
2022/10/05 03:48:57;;;;;;;5.07;2.42;;;12.40;99.90;;;;;;4848153;29;20169;-86
2022/10/05 03:51:34;;;;;;;4.10;2.80;;;12.30;99.90;;;;;;4847758;29;20562;-86
2022/10/05 03:54:23;;;;;;;7.05;2.58;;;12.30;99.90;;;;;;4863214;29;20197;-85
2022/10/05 03:57:04;;;;;;;3.88;2.33;;;12.30;99.90;;;;;;4864339;29;20184;-85
2022/10/05 03:59:49;;;;;;;6.70;2.58;;;12.30;99.90;;;;;;4847552;29;20176;-84
2022/10/05 04:02:29;;;;;;;6.93;3.00;;;12.30;99.90;;;;;;4847700;29;20712;-84
2022/10/05 04:05:08;;;;;;;5.25;2.78;;;12.40;99.90;;;;;;4847482;29;20177;-86
2022/10/05 04:08:03;;;;;;;7.57;2.70;;;12.40;99.90;;;;;;4864278;29;20209;-85
2022/10/05 04:10:44;;;;;;;11.57;2.85;;;12.40;99.90;;;;;;4864161;29;20264;-86
2022/10/05 04:13:51;;;;;;;6.95;2.58;;;12.40;99.90;;;;;;4864062;29;20179;-84
2022/10/05 04:16:21;;;;;;;6.45;2.97;;;12.40;99.90;;;;;;4836524;29;20639;-85
2022/10/05 04:19:23;;;;;;;4.82;3.10;;;12.40;99.90;;;;;;4847311;29;20192;-86
2022/10/05 04:22:02;;;;;;;5.60;2.55;;;12.40;99.90;;;;;;4834949;29;20200;-84
2022/10/05 04:24:39;;;;;;;5.50;2.70;;;12.40;99.90;;;;;;4846771;29;20240;-85
2022/10/05 04:27:15;;;;;;;6.47;2.72;;;12.40;99.90;;;;;;4847470;29;20625;-86
2022/10/05 04:30:07;;;;;;;6.10;3.10;;;12.40;99.90;;;;;;4847015;29;20180;-85
2022/10/05 04:32:51;;;;;;;4.35;2.92;;;12.40;99.90;;;;;;4846415;29;20188;-84
2022/10/05 04:35:46;;;;;;;4.35;2.72;;;12.40;99.90;;;;;;4846875;29;20307;-85
2022/10/05 04:38:17;;;;;;;6.95;3.00;;;12.30;99.90;;;;;;4838350;29;20193;-85
2022/10/05 04:41:10;;;;;;;7.75;2.95;;;12.30;99.90;;;;;;4845411;29;20249;-84
2022/10/05 04:43:48;;;;;;;6.95;2.95;;;12.30;99.90;;;;;;4828694;29;20238;-86
2022/10/05 04:46:41;;;;;;;6.82;2.70;;;12.30;99.90;;;;;;4828468;29;20177;-84
2022/10/05 04:49:06;;;;;;;7.38;2.85;;;12.30;99.90;;;;;;4828453;29;20526;-85
2022/10/05 04:51:35;;;;;;;6.63;3.13;;;12.30;99.90;;;;;;4834913;29;20183;-85
2022/10/05 04:54:39;;;;;;;5.38;2.88;;;12.30;99.90;;;;;;4846384;29;20216;-84
2022/10/05 04:57:13;;;;;;;3.97;2.38;;;12.30;99.90;;;;;;4863222;29;20177;-86
2022/10/05 05:00:04;;;;;;;8.88;2.80;;;12.30;99.90;;;;;;4846798;29;20192;-86
2022/10/05 05:02:42;;;;;;;4.88;2.60;;;12.30;99.90;;;;;;4846520;29;20179;-85
2022/10/05 05:05:30;;;;;;;6.10;2.55;;;12.30;99.90;;;;;;4862938;29;20251;-85
2022/10/05 05:08:34;;;;;;;5.20;2.80;;;12.30;99.90;;;;;;4863087;29;20267;-86
2022/10/05 05:11:27;;;;;;;4.10;2.70;;;12.20;99.90;;;;;;4816386;29;20193;-84
2022/10/05 05:13:58;;;;;;;5.15;3.03;;;12.30;99.90;;;;;;4863059;29;20622;-84
2022/10/05 05:16:37;;;;;;;5.85;3.10;;;12.20;99.90;;;;;;4862809;29;20185;-84
2022/10/05 05:19:12;;;;;;;6.53;2.90;;;12.20;99.90;;;;;;4846419;29;20173;-85
2022/10/05 05:21:59;;;;;;;6.22;3.30;;;12.20;99.90;;;;;;4868363;29;20184;-84
2022/10/05 05:24:30;;;;;;;5.28;3.15;;;12.20;99.90;;;;;;4857534;29;20216;-83
2022/10/05 05:27:28;;;;;;;7.28;3.28;;;12.20;99.90;;;;;;4861590;29;20188;-84
2022/10/05 05:30:25;;;;;;;7.93;3.50;;;12.20;99.90;;;;;;4861420;29;20641;-83
2022/10/05 05:33:07;;;;;;;7.47;3.22;;;12.20;99.90;;;;;;4860883;29;20173;-86
2022/10/05 05:36:00;;;;;;;8.05;3.00;;;12.20;99.90;;;;;;4861273;29;20213;-85
2022/10/05 05:38:44;;;;;;;5.05;3.38;;;12.20;99.90;;;;;;4862103;29;20621;-84
2022/10/05 05:41:13;;;;;;;7.97;3.47;;;12.20;99.90;;;;;;4873478;29;20280;-84
2022/10/05 05:43:55;;;;;;;6.40;3.45;;;12.20;99.90;;;;;;4842723;29;20192;-83
2022/10/05 05:46:57;;;;;;;9.23;3.35;;;12.20;99.90;;;;;;4845425;29;20213;-85
2022/10/05 05:49:51;;;;;;;6.35;3.72;;;12.30;99.90;;;;;;4843692;29;20314;-85
2022/10/05 05:52:52;;;;;;;4.20;2.90;;;12.20;99.90;;;;;;4859132;29;20200;-84
2022/10/05 05:55:25;;;;;;;7.55;3.47;;;12.20;99.90;;;;;;4815274;29;20231;-85
2022/10/05 05:58:17;;;;;;;6.47;3.67;;;12.20;99.90;;;;;;4844487;29;20570;-84
2022/10/05 06:01:04;;;;;;;6.20;3.70;;;12.20;99.90;;;;;;4856174;29;20203;-84
2022/10/05 06:03:44;;;;;;;10.15;3.70;;;12.20;99.90;;;;;;4845039;29;20512;-85
2022/10/05 06:06:15;;;;;;;5.57;3.60;;;12.20;99.90;;;;;;4844888;29;20276;-84
2022/10/05 06:08:57;;;;;;;6.63;3.92;;;12.20;99.90;;;;;;4844471;29;20172;-84
2022/10/05 06:11:28;;;;;;;5.63;3.90;;;12.20;99.90;;;;;;4843999;29;20184;-84
2022/10/05 06:14:02;;;;;;;7.22;3.78;;;12.20;99.90;;;;;;4844664;29;20209;-83
2022/10/05 06:16:44;;;;;;;7.63;4.22;;;12.30;99.90;;;;;;4844887;29;20612;-84
2022/10/05 06:19:17;;;;;;;7.20;3.75;;;12.30;99.90;;;;;;4846995;29;20643;-85
2022/10/05 06:22:12;;;;;;;7.47;4.13;;;12.40;99.90;;;;;;4855462;29;20232;-85
2022/10/05 06:25:14;;;;;;;5.88;3.97;;;12.40;99.90;;;;;;4850353;29;20216;-84
2022/10/05 06:27:58;;;;;;;6.90;3.97;;;12.50;99.90;;;;;;4878679;29;20179;-84
2022/10/05 06:30:30;;;;;;;11.25;4.07;;;12.60;99.90;;;;;;4860063;29;20875;-84
2022/10/05 06:33:34;;;;;;;5.97;3.97;;;12.60;99.90;;;;;;4862959;29;20192;-86
2022/10/05 06:36:27;;;;;;;7.00;4.15;;;12.60;99.90;;;;;;4877620;29;20207;-84
2022/10/05 06:39:26;;;;;;;8.88;3.83;;;12.70;99.90;;;;;;4879623;29;20183;-85
2022/10/05 06:42:28;;;;;;;5.55;3.67;;;12.80;99.90;;;;;;4844014;29;20196;-85
2022/10/05 06:45:06;;;;;;;9.18;3.88;;;12.90;99.90;;;;;;4843133;29;20659;-86
2022/10/05 06:47:56;;;;;;;7.13;4.28;;;13.00;99.90;;;;;;4830273;29;20628;-84
2022/10/05 06:50:34;;;;;;;7.43;3.65;;;13.10;99.90;;;;;;4830372;29;20185;-84
2022/10/05 06:53:26;;;;;;;8.60;3.97;;;13.20;99.90;;;;;;4846127;29;20184;-84
2022/10/05 06:56:14;;;;;;;11.20;3.70;;;13.30;99.90;;;;;;4864839;29;20228;-84
2022/10/05 06:58:49;;;;;;;6.68;3.53;;;13.40;99.90;;;;;;4849168;29;20231;-85
2022/10/05 07:01:29;;;;;;;8.73;3.92;;;13.50;99.90;;;;;;4863635;29;20172;-84
2022/10/05 07:04:09;;;;;;;6.13;3.85;;;13.50;99.90;;;;;;4863551;29;20241;-85
2022/10/05 07:06:56;;;;;;;10.65;3.88;;;13.50;99.90;;;;;;4863647;29;20203;-84
2022/10/05 07:09:26;;;;;;;4.95;3.65;;;13.50;99.90;;;;;;4863264;29;20219;-85
2022/10/05 07:12:09;;;;;;;7.03;3.72;;;13.50;99.90;;;;;;4859016;29;20345;-86
2022/10/05 07:14:54;;;;;;;9.50;3.58;;;13.60;99.90;;;;;;4863118;29;20272;-83
2022/10/05 07:17:22;;;;;;;8.27;4.05;;;13.60;99.90;;;;;;4864514;29;20187;-84
2022/10/05 07:19:57;;;;;;;6.18;3.70;;;13.60;99.90;;;;;;4854048;29;20189;-84
2022/10/05 07:22:53;;;;;;;9.25;3.80;;;13.50;99.90;;;;;;4863159;29;20176;-82
2022/10/05 07:25:26;;;;;;;7.43;3.63;;;13.50;99.90;;;;;;4834586;29;20184;-84
2022/10/05 07:28:31;;;;;;;7.38;3.85;;;13.40;99.90;;;;;;4863270;29;20256;-83
2022/10/05 07:31:05;;;;;;;7.38;3.75;;;13.50;99.90;;;;;;4862957;29;20206;-84
2022/10/05 07:33:57;;;;;;;6.00;3.67;;;13.40;99.90;;;;;;4851855;29;20707;-84
2022/10/05 07:39:51;;;;;;;9.27;4.35;;;13.30;99.90;;;;;;4870261;29;20519;-85
2022/10/05 07:42:31;;;;;;;6.75;3.80;;;13.30;99.90;;;;;;4855478;29;20620;-84
2022/10/05 07:45:26;;;;;;;11.50;4.50;;;13.40;99.90;;;;;;4847610;29;20569;-85
2022/10/05 07:47:55;;;;;;;10.20;4.22;;;13.40;99.90;;;;;;4846974;29;20205;-85
2022/10/05 07:50:39;;;;;;;6.80;4.00;;;13.60;99.90;;;;;;4847654;29;20184;-84
2022/10/05 07:53:14;;;;;;;6.85;4.20;;;13.70;99.90;;;;;;4863550;29;20212;-86
2022/10/05 07:55:46;;;;;;;8.13;4.13;;;13.90;99.90;;;;;;4846811;29;20212;-86
2022/10/05 07:58:20;;;;;;;7.32;4.13;;;14.00;99.90;;;;;;4850349;29;20612;-85
2022/10/05 08:01:01;;;;;;;6.88;4.22;;;14.10;99.90;;;;;;4882541;29;20172;-86
2022/10/05 08:03:51;;;;;;;6.75;3.90;;;14.10;99.90;;;;;;4882370;29;20172;-84
2022/10/05 08:06:37;;;;;;;6.18;4.05;;;14.10;99.90;;;;;;4865579;29;20184;-84
2022/10/05 08:09:19;;;;;;;6.13;4.10;;;14.20;99.90;;;;;;4875346;29;20184;-86
2022/10/05 08:11:51;;;;;;;9.35;3.72;;;14.20;99.90;;;;;;4858737;29;20647;-86
2022/10/05 08:14:27;;;;;;;6.15;3.63;;;14.30;99.90;;;;;;4849337;29;20693;-84
2022/10/05 08:16:58;;;;;;;9.60;4.10;;;14.30;99.90;;;;;;4882208;29;20168;-84
2022/10/05 08:19:42;;;;;;;6.47;4.05;;;14.50;99.90;;;;;;4882259;29;20172;-84
2022/10/05 08:22:12;;;;;;;6.70;3.92;;;14.50;99.90;;;;;;4865308;29;20234;-85
2022/10/05 08:25:00;;;;;;;7.07;3.35;;;14.60;99.90;;;;;;4872277;29;20565;-85
2022/10/05 08:27:45;;;;;;;9.32;3.80;;;14.60;99.90;;;;;;4846415;29;20561;-83
2022/10/05 08:30:14;;;;;;;6.63;3.80;;;14.60;99.90;;;;;;4863392;29;20161;-85
2022/10/05 08:32:59;;;;;;;14.43;3.90;;;14.60;99.90;;;;;;4846710;29;20184;-85
2022/10/05 08:35:24;;;;;;;5.20;3.58;;;14.60;99.90;;;;;;4863067;29;20526;-86
2022/10/05 08:37:51;;;;;;;6.22;3.53;;;14.60;99.90;;;;;;4860895;29;20195;-84
2022/10/05 08:40:55;;;;;;;4.47;3.58;;;14.60;99.90;;;;;;4864628;29;20209;-84
2022/10/05 08:43:33;;;;;;;5.03;3.40;;;14.70;99.90;;;;;;4863056;29;20582;-85
2022/10/05 08:46:18;;;;;;;5.53;3.30;;;14.70;99.90;;;;;;4846587;29;20193;-86
2022/10/05 08:48:49;;;;;;;7.95;3.47;;;14.80;99.90;;;;;;4856532;29;20223;-89
2022/10/05 08:51:24;;;;;;;8.35;3.65;;;14.80;99.90;;;;;;4861875;29;20188;-85
2022/10/05 08:54:08;;;;;;;5.05;3.33;;;14.80;99.90;;;;;;4854307;29;20291;-84
2022/10/05 08:56:34;;;;;;;7.65;3.42;;;14.80;99.90;;;;;;4862516;29;20181;-85
2022/10/05 08:59:31;;;;;;;6.20;3.42;;;14.80;99.90;;;;;;4846295;29;20181;-84
2022/10/05 09:02:03;;;;;;;6.72;3.55;;;14.90;99.90;;;;;;4846288;29;20180;-84
2022/10/05 09:04:38;;;;;;;5.88;3.30;;;15.10;99.90;;;;;;4846133;29;20189;-86
2022/10/05 09:07:38;;;;;;;5.30;3.50;;;15.20;99.90;;;;;;4845420;29;20192;-85
2022/10/05 09:10:19;;;;;;;6.82;3.70;;;15.20;99.90;;;;;;4861872;29;20211;-85
2022/10/05 09:12:51;;;;;;;5.30;3.35;;;15.30;99.90;;;;;;4862418;29;20279;-84
2022/10/05 09:15:26;;;;;;;5.90;3.28;;;15.40;99.90;;;;;;4845930;29;20735;-82
2022/10/05 09:18:29;;;;;;;6.25;3.45;;;15.50;99.90;;;;;;4862515;29;20203;-82
2022/10/05 09:21:04;;;;;;;6.35;3.63;;;15.60;99.90;;;;;;4847778;29;20616;-83
2022/10/05 09:23:43;;;;;;;5.43;3.63;;;15.60;99.90;;;;;;4857250;29;20244;-84
2022/10/05 09:26:58;;;;;;;5.75;3.47;;;15.60;99.90;;;;;;4864194;29;20179;-84
2022/10/05 09:30:01;;;;;;;8.57;3.38;;;15.50;99.90;;;;;;4857693;29;20204;-82
2022/10/05 09:32:48;;;;;;;8.15;3.65;;;15.70;99.90;;;;;;4861807;29;20212;-84
2022/10/05 09:35:45;;;;;;;6.63;3.78;;;15.80;99.90;;;;;;4861036;29;20224;-83
2022/10/05 09:38:35;;;;;;;5.78;3.70;;;15.80;99.90;;;;;;4860498;29;20188;-82
2022/10/05 09:41:01;;;;;;;8.60;3.95;;;15.80;99.90;;;;;;4862245;29;20586;-83
2022/10/05 09:43:55;;;;;;;7.20;3.78;;;15.80;99.90;;;;;;4860751;29;20692;-84
2022/10/05 09:46:41;;;;;;;6.65;3.75;;;15.80;99.90;;;;;;4870395;29;20259;-82
2022/10/05 09:49:27;;;;;;;8.07;4.18;;;15.80;99.90;;;;;;4861678;29;20271;-82
2022/10/05 09:52:38;;;;;;;5.95;3.75;;;15.80;99.90;;;;;;4857936;29;20177;-82
2022/10/05 09:55:32;;;;;;;6.88;3.30;;;15.90;99.90;;;;;;4797509;29;20239;-81
2022/10/05 09:58:34;;;;;;;5.63;3.47;;;15.90;99.90;;;;;;4843011;29;20166;-82
2022/10/05 10:01:31;;;;;;;8.35;3.60;;;16.00;99.90;;;;;;4845273;29;20220;-83
2022/10/05 10:04:06;;;;;;;5.47;3.80;;;16.10;99.90;;;;;;4861749;29;20718;-83
2022/10/05 10:07:06;;;;;;;7.00;3.78;;;16.10;99.90;;;;;;4845201;29;20172;-82
2022/10/05 10:09:50;;;;;;;6.45;3.42;;;16.20;99.90;;;;;;4861129;29;20188;-85
2022/10/05 10:12:55;;;;;;;8.20;3.95;;;16.20;99.90;;;;;;4861328;29;20180;-81
2022/10/05 10:15:30;;;;;;;9.90;3.83;;;16.20;99.90;;;;;;4827500;29;20229;-81
2022/10/05 10:18:20;;;;;;;6.93;3.70;;;16.30;99.90;;;;;;4845065;29;20172;-82
2022/10/05 10:21:14;;;;;;;7.05;3.58;;;16.30;99.90;;;;;;4844998;29;20185;-82
2022/10/05 10:23:39;;;;;;;6.00;3.60;;;16.20;99.90;;;;;;4860483;29;20228;-85
2022/10/05 10:26:35;;;;;;;7.45;3.80;;;16.20;99.90;;;;;;4844795;29;20200;-83
2022/10/05 10:29:35;;;;;;;5.72;3.95;;;16.20;99.90;;;;;;4861097;29;20232;-82
2022/10/05 10:32:39;;;;;;;5.78;3.63;;;16.10;99.90;;;;;;4844733;29;20269;-83
2022/10/05 10:35:27;;;;;;;5.57;3.85;;;16.10;99.90;;;;;;4860938;29;20208;-82
2022/10/05 10:38:27;;;;;;;9.13;3.80;;;16.10;99.90;;;;;;4844721;29;20181;-84
2022/10/05 10:41:22;;;;;;;9.15;3.80;;;16.10;99.90;;;;;;4861254;29;20176;-82
2022/10/05 10:44:01;;;;;;;5.88;3.67;;;16.00;99.90;;;;;;4852561;29;20196;-82
2022/10/05 10:47:04;;;;;;;4.80;3.60;;;16.00;99.90;;;;;;4844527;29;20218;-86
2022/10/05 10:49:39;;;;;;;6.50;4.07;;;16.00;99.90;;;;;;4861371;29;20184;-82
2022/10/05 10:52:23;;;;;;;7.57;3.95;;;15.90;99.90;;;;;;4844834;29;20718;-82
2022/10/05 10:55:17;;;;;;;6.07;3.75;;;15.90;99.90;;;;;;4860769;29;20244;-85
2022/10/05 10:58:00;;;;;;;6.13;3.70;;;16.00;99.90;;;;;;4844730;29;20177;-84
2022/10/05 11:00:59;;;;;;;6.07;3.97;;;15.90;99.90;;;;;;4844824;29;20590;-86
2022/10/05 11:03:49;;;;;;;5.18;3.75;;;15.90;99.90;;;;;;4861178;29;20165;-86
2022/10/05 11:06:40;;;;;;;4.90;3.45;;;15.90;99.90;;;;;;4844805;29;20165;-83
2022/10/05 11:09:40;;;;;;;4.93;3.80;;;16.00;99.90;;;;;;4860783;29;20169;-83
2022/10/05 11:12:47;;;;;;;6.28;3.65;;;16.00;99.90;;;;;;4860764;29;20195;-87
2022/10/05 11:15:44;;;;;;;6.25;4.05;;;16.00;99.90;;;;;;4836223;29;20220;-85
2022/10/05 11:18:19;;;;;;;5.50;3.97;;;16.00;99.90;;;;;;4860808;29;20631;-86
2022/10/05 11:20:59;;;;;;;4.85;4.03;;;16.00;99.90;;;;;;4844656;29;20180;-85
2022/10/05 11:23:46;;;;;;;5.60;3.30;;;15.90;99.90;;;;;;4840733;29;20235;-85
2022/10/05 11:26:34;;;;;;;4.47;3.35;;;15.90;99.90;;;;;;4840990;29;20529;-85
2022/10/05 11:29:24;;;;;;;6.15;3.47;;;16.00;99.90;;;;;;4842573;29;20173;-84
2022/10/05 11:32:14;;;;;;;4.95;3.60;;;16.00;99.90;;;;;;4842819;29;20193;-83
2022/10/05 11:35:02;;;;;;;4.85;3.60;;;16.00;99.90;;;;;;4844425;29;20208;-83
2022/10/05 11:38:12;;;;;;;4.13;3.20;;;16.00;99.90;;;;;;4844703;29;20184;-84
2022/10/05 11:41:01;;;;;;;4.35;3.08;;;16.10;99.90;;;;;;4845994;29;20177;-82
2022/10/05 11:43:47;;;;;;;4.22;2.47;;;16.20;99.90;;;;;;4844362;29;20183;-82
2022/10/05 11:46:15;;;;;;;5.65;3.15;;;16.20;99.90;;;;;;4844241;29;20472;-83
2022/10/05 11:49:15;;;;;;;6.20;3.15;;;16.20;99.90;;;;;;4845806;29;20617;-83
2022/10/05 11:51:50;;;;;;;4.05;3.28;;;16.10;99.90;;;;;;4844327;29;20261;-84
2022/10/05 11:54:46;;;;;;;3.78;2.90;;;16.20;99.90;;;;;;4843595;29;20659;-83
2022/10/05 11:57:32;;;;;;;4.43;3.05;;;16.30;99.90;;;;;;4844358;29;20192;-83
2022/10/05 12:00:21;;;;;;;5.07;3.70;;;16.40;99.90;;;;;;4845683;29;20199;-83
2022/10/05 12:03:28;;;;;;;5.72;3.80;;;16.40;99.90;;;;;;4844250;29;20629;-84
2022/10/05 12:06:05;;;;;;;8.15;4.20;;;16.40;99.90;;;;;;4824168;29;20205;-87
2022/10/05 12:08:52;;;;;;;4.75;4.20;;;16.30;99.90;;;;;;4844827;29;20515;-84
2022/10/05 12:11:52;;;;;;;7.05;3.67;;;16.30;99.90;;;;;;4845343;29;20173;-84
2022/10/05 12:14:56;;;;;;;6.68;3.83;;;16.40;99.90;;;;;;4844146;29;20209;-86
2022/10/05 12:17:47;;;;;;;6.50;4.15;;;16.30;99.90;;;;;;4845459;29;20173;-86
2022/10/05 12:20:24;;;;;;;8.05;4.63;;;16.30;99.90;;;;;;4845161;29;20174;-85
2022/10/05 12:23:04;;;;;;;6.40;3.60;;;16.30;99.90;;;;;;4846319;29;20544;-84
2022/10/05 12:25:41;;;;;;;6.90;3.35;;;16.30;99.90;;;;;;4846809;29;20267;-85
2022/10/05 12:28:16;;;;;;;6.40;3.33;;;16.30;99.90;;;;;;4846408;29;20188;-85
2022/10/05 12:31:12;;;;;;;4.80;2.88;;;16.30;99.90;;;;;;4846983;29;20251;-85
2022/10/05 12:33:52;;;;;;;4.90;2.92;;;16.20;99.90;;;;;;4846723;29;20180;-86
2022/10/05 12:36:43;;;;;;;6.63;3.53;;;16.20;99.90;;;;;;4863789;29;20706;-85
2022/10/05 12:39:42;;;;;;;5.70;3.10;;;16.20;99.90;;;;;;4846271;29;20675;-85
2022/10/05 12:42:26;;;;;;;5.90;3.08;;;16.10;99.90;;;;;;4862471;29;20632;-86
2022/10/05 12:45:12;;;;;;;3.85;2.88;;;16.10;99.90;;;;;;4846218;29;20195;-83
2022/10/05 12:47:40;;;;;;;5.30;3.00;;;16.10;99.90;;;;;;4863088;29;20289;-83
2022/10/05 12:50:38;;;;;;;3.83;3.30;;;16.10;99.90;;;;;;4865140;29;20254;-84
2022/10/05 12:53:27;;;;;;;3.55;3.25;;;16.10;99.90;;;;;;4844546;29;20578;-83
2022/10/05 12:56:15;;;;;;;4.60;3.17;;;16.10;99.90;;;;;;4846370;29;20217;-85
2022/10/05 12:58:55;;;;;;;3.70;2.67;;;16.10;99.90;;;;;;4862566;29;20192;-83
2022/10/05 13:01:36;;;;;;;7.30;3.08;;;16.10;99.90;;;;;;4846652;29;20683;-85
2022/10/05 13:04:21;;;;;;;4.07;2.95;;;16.10;99.90;;;;;;4862824;29;20561;-85
2022/10/05 13:06:55;;;;;;;3.33;2.83;;;16.00;99.90;;;;;;4846521;29;20185;-86
2022/10/05 13:09:42;;;;;;;3.03;2.53;;;16.10;99.90;;;;;;4862673;29;20169;-86
2022/10/05 13:12:34;;;;;;;6.95;2.50;;;16.10;99.90;;;;;;4845406;29;20196;-86
2022/10/05 13:15:17;;;;;;;5.75;2.80;;;16.10;99.90;;;;;;4846047;29;20216;-84
2022/10/05 13:18:01;;;;;;;4.85;2.65;;;16.10;99.90;;;;;;4846021;29;20185;-87
2022/10/05 13:20:34;;;;;;;3.53;2.58;;;16.20;99.90;;;;;;4846485;29;20236;-86
2022/10/05 13:23:33;;;;;;;3.00;2.53;;;16.20;99.90;;;;;;4845760;29;20261;-86
2022/10/05 13:26:06;;;;;;;4.60;2.80;;;16.10;99.90;;;;;;4862584;29;20191;-85
2022/10/05 13:28:56;;;;;;;4.68;2.90;;;16.10;99.90;;;;;;4846056;29;20524;-86
2022/10/05 13:31:29;;;;;;;3.60;2.45;;;16.30;99.90;;;;;;4878424;29;20626;-85
2022/10/05 13:34:17;;;;;;;3.70;2.53;;;16.50;99.90;;;;;;4864068;29;20176;-89
2022/10/05 13:37:13;;;;;;;4.88;2.40;;;16.70;99.90;;;;;;4860830;29;20245;-85
2022/10/05 13:40:05;;;;;;;7.93;2.97;;;16.80;99.90;;;;;;4861580;29;20501;-86
2022/10/05 13:42:44;;;;;;;5.95;2.75;;;17.00;99.90;;;;;;4827650;29;20185;-86
2022/10/05 13:45:22;;;;;;;5.60;2.60;;;17.10;99.90;;;;;;4826958;29;20169;-85
2022/10/05 13:48:16;;;;;;;3.30;2.42;;;17.20;99.90;;;;;;4843881;29;20169;-82
2022/10/05 13:51:02;;;;;;;2.72;2.30;;;17.30;99.90;;;;;;4829271;29;20284;-86
2022/10/05 13:53:42;;;;;;;5.10;2.60;;;17.20;99.90;;;;;;4832055;29;20647;-84
2022/10/05 13:56:10;;;;;;;7.93;2.92;;;17.10;99.90;;;;;;4862271;29;20229;-84
2022/10/05 13:58:58;;;;;;;7.93;2.80;;;16.90;99.90;;;;;;4849090;29;20272;-85
2022/10/05 14:01:40;;;;;;;3.08;2.60;;;16.70;99.90;;;;;;4836352;29;20547;-85
2022/10/05 14:04:17;;;;;;;7.07;2.60;;;16.70;99.90;;;;;;4854122;29;20533;-84
2022/10/05 14:06:44;;;;;;;5.00;2.50;;;16.80;99.90;;;;;;4859480;29;20302;-85
2022/10/05 14:09:25;;;;;;;3.47;2.50;;;16.90;99.90;;;;;;4861436;29;20185;-86
2022/10/05 14:12:10;;;;;;;4.97;2.70;;;17.00;99.90;;;;;;4861525;29;20194;-87